Time;durP1;ratioP1;P1;durP2;ratioP2;P2;SDS_P1;SDS_P2;PMS_P1;PMS_P2;Temp;Humidity;BMP_temperature;BMP_pressure;BME280_temperature;BME280_humidity;BME280_pressure;Samples;Min_cycle;Max_cycle;Signal;HPM_P1;HPM_P2
2023/05/27 00:00:28;;;;;;;9.20;5.50;;;;;;;10.94;87.17;95795.36;106604;1275;22637;-73
2023/05/27 00:03:17;;;;;;;8.20;5.20;;;;;;;10.85;86.76;95793.58;106697;1275;22592;-73
2023/05/27 00:05:45;;;;;;;6.40;5.30;;;;;;;10.75;86.61;95793.39;106902;1275;22628;-73
2023/05/27 00:08:13;;;;;;;10.90;5.80;;;;;;;10.72;86.92;95788.50;106596;1253;24228;-73
2023/05/27 00:10:41;;;;;;;7.90;4.90;;;;;;;10.70;86.85;95786.25;106577;1275;22586;-73
2023/05/27 00:13:09;;;;;;;8.10;5.90;;;;;;;10.62;86.44;95782.67;106702;1275;25502;-73
2023/05/27 00:15:41;;;;;;;8.50;5.80;;;;;;;10.62;87.31;95782.67;106637;1275;25322;-73
2023/05/27 00:18:09;;;;;;;9.80;5.80;;;;;;;10.65;87.39;95786.69;106874;1275;22555;-73
2023/05/27 00:20:37;;;;;;;7.30;6.20;;;;;;;10.72;88.27;95780.22;106741;1275;25463;-73
2023/05/27 00:23:05;;;;;;;9.10;5.80;;;;;;;10.84;88.49;95780.05;106931;1275;22733;-73
2023/05/27 00:25:33;;;;;;;6.80;5.50;;;;;;;10.92;88.08;95782.20;106796;1275;23146;-73
2023/05/27 00:28:02;;;;;;;7.10;6.10;;;;;;;10.89;86.79;95784.17;106579;1275;22531;-73
2023/05/27 00:30:30;;;;;;;7.80;6.20;;;;;;;10.81;87.15;95782.55;106548;1253;22517;-74
2023/05/27 00:32:59;;;;;;;8.20;5.60;;;;;;;10.77;87.00;95786.84;106575;1275;22572;-73
2023/05/27 00:35:29;;;;;;;10.00;5.90;;;;;;;10.73;86.85;95787.78;106642;1275;22635;-73
2023/05/27 00:37:57;;;;;;;7.20;5.70;;;;;;;10.75;87.37;95788.28;106617;1275;25350;-73
2023/05/27 00:40:28;;;;;;;6.10;5.30;;;;;;;10.75;87.11;95785.83;106707;1275;23941;-73
2023/05/27 00:42:57;;;;;;;9.30;5.60;;;;;;;10.74;86.95;95784.08;106969;1275;24109;-73
2023/05/27 00:45:26;;;;;;;13.70;5.60;;;;;;;10.68;87.16;95782.94;106960;1275;25458;-73
2023/05/27 00:47:54;;;;;;;7.50;5.90;;;;;;;10.63;87.69;95781.43;106560;1275;22531;-73
2023/05/27 00:50:25;;;;;;;9.00;6.20;;;;;;;10.58;87.04;95782.40;106613;1275;25660;-74
2023/05/27 00:52:55;;;;;;;8.60;6.90;;;;;;;10.48;87.52;95779.20;106590;1275;25475;-73
2023/05/27 00:55:25;;;;;;;8.60;6.40;;;;;;;10.47;87.86;95778.88;106885;1275;22654;-73
2023/05/27 00:57:54;;;;;;;7.90;6.40;;;;;;;10.44;88.65;95775.92;106912;1275;25312;-73
2023/05/27 01:00:23;;;;;;;12.00;6.10;;;;;;;10.47;88.97;95774.66;106623;1275;22634;-74
2023/05/27 01:02:51;;;;;;;10.00;6.70;;;;;;;10.51;88.61;95772.47;106755;1275;25309;-73
2023/05/27 01:05:21;;;;;;;10.60;6.50;;;;;;;10.51;88.43;95772.48;106996;1275;25227;-73
2023/05/27 01:08:08;;;;;;;8.50;6.00;;;;;;;10.50;88.22;95771.44;106687;1275;22524;-73
2023/05/27 01:10:51;;;;;;;7.80;5.90;;;;;;;10.46;87.74;95767.45;106593;1275;22594;-73
2023/05/27 01:14:04;;;;;;;12.00;5.70;;;;;;;10.40;87.56;95768.25;106631;1275;24196;-73
2023/05/27 01:16:33;;;;;;;12.60;6.60;;;;;;;10.31;88.16;95760.64;106089;1283;25473;-74
2023/05/27 01:19:04;;;;;;;9.80;6.40;;;;;;;10.28;88.30;95765.78;106132;1283;23013;-74
2023/05/27 01:21:36;;;;;;;7.80;5.80;;;;;;;10.25;88.25;95765.08;106350;1275;25607;-74
2023/05/27 01:24:05;;;;;;;6.40;5.30;;;;;;;10.18;88.71;95763.26;106631;1276;22663;-73
2023/05/27 01:26:34;;;;;;;8.50;7.00;;;;;;;10.13;88.18;95763.33;106730;1276;22752;-74
2023/05/27 01:29:04;;;;;;;9.70;7.00;;;;;;;10.12;88.63;95757.35;106262;1276;900584;-74
2023/05/27 01:31:57;;;;;;;10.10;6.70;;;;;;;10.14;89.05;95755.40;106587;1275;25245;-74
2023/05/27 01:34:36;;;;;;;;;;;;;;;10.14;88.41;95754.36;106729;1276;26721;-74
2023/05/27 01:37:08;;;;;;;8.10;6.10;;;;;;;10.11;88.93;95753.86;106936;1253;22543;-74
2023/05/27 01:39:37;;;;;;;11.30;6.50;;;;;;;10.11;89.78;95755.61;106675;1276;25361;-74
2023/05/27 01:42:07;;;;;;;8.60;5.40;;;;;;;10.09;89.63;95758.98;106552;1275;23854;-74
2023/05/27 01:44:36;;;;;;;7.60;5.40;;;;;;;10.09;89.59;95759.35;106648;1276;23926;-74
2023/05/27 01:47:05;;;;;;;8.70;5.80;;;;;;;10.07;88.82;95761.82;106663;1276;25233;-74
2023/05/27 01:49:35;;;;;;;9.20;6.30;;;;;;;10.00;88.99;95760.89;106602;1275;22523;-74
2023/05/27 01:52:03;;;;;;;9.90;5.80;;;;;;;9.96;88.90;95762.51;106650;1275;22635;-74
2023/05/27 01:54:31;;;;;;;10.60;5.90;;;;;;;10.01;89.14;95761.73;106607;1276;22543;-74
2023/05/27 01:57:00;;;;;;;9.20;5.50;;;;;;;10.11;89.26;95760.18;106601;1275;25427;-74
2023/05/27 01:59:29;;;;;;;10.60;5.70;;;;;;;10.19;89.02;95754.80;106709;1275;24248;-74
2023/05/27 02:01:57;;;;;;;7.90;5.30;;;;;;;10.20;88.35;95756.02;106638;1276;24374;-74
2023/05/27 02:04:25;;;;;;;9.10;5.40;;;;;;;10.13;88.22;95757.00;106576;1276;23918;-74
2023/05/27 02:06:55;;;;;;;8.00;5.30;;;;;;;10.15;88.82;95761.00;106599;1275;22528;-74
2023/05/27 02:09:25;;;;;;;11.70;6.20;;;;;;;10.15;88.76;95761.37;106627;1276;24193;-74
2023/05/27 02:11:54;;;;;;;7.00;5.30;;;;;;;10.15;88.57;95762.77;106635;1276;25465;-74
2023/05/27 02:14:23;;;;;;;8.30;5.70;;;;;;;10.14;88.29;95763.67;106646;1275;22523;-74
2023/05/27 02:16:51;;;;;;;6.70;5.60;;;;;;;10.16;88.38;95760.47;106563;1276;22695;-74
2023/05/27 02:19:20;;;;;;;9.10;5.10;;;;;;;10.11;88.53;95764.23;106539;1276;22528;-74
2023/05/27 02:21:48;;;;;;;7.90;4.20;;;;;;;10.11;88.13;95763.71;106669;1276;25341;-74
2023/05/27 02:24:16;;;;;;;11.70;5.40;;;;;;;10.02;87.32;95765.77;106636;1276;23146;-74
2023/05/27 02:26:44;;;;;;;6.00;5.40;;;;;;;9.93;88.11;95764.65;106609;1276;25383;-74
2023/05/27 02:29:13;;;;;;;8.30;5.60;;;;;;;9.93;88.03;95765.19;106611;1275;24480;-74
2023/05/27 02:31:41;;;;;;;8.50;5.60;;;;;;;9.98;88.38;95766.19;106546;1275;22698;-75
2023/05/27 02:34:09;;;;;;;13.50;5.90;;;;;;;10.06;88.68;95769.59;106589;1275;24521;-74
2023/05/27 02:36:38;;;;;;;11.00;5.60;;;;;;;10.08;88.31;95770.61;106616;1276;25271;-74
2023/05/27 02:39:06;;;;;;;8.10;5.90;;;;;;;10.15;88.77;95775.78;106614;1276;25613;-74
2023/05/27 02:41:34;;;;;;;17.10;8.20;;;;;;;10.19;88.60;95772.91;106574;1276;22624;-74
2023/05/27 02:44:03;;;;;;;17.30;9.30;;;;;;;10.24;88.54;95770.20;106606;1275;25968;-74
2023/05/27 02:46:31;;;;;;;12.40;10.50;;;;;;;10.31;88.25;95767.67;106548;1275;23018;-74
2023/05/27 02:49:00;;;;;;;18.90;9.80;;;;;;;10.35;87.88;95768.67;106655;1273;22560;-74
2023/05/27 02:51:29;;;;;;;9.50;7.80;;;;;;;10.28;87.54;95770.52;106588;1275;24354;-74
2023/05/27 02:53:57;;;;;;;8.50;7.60;;;;;;;10.16;86.90;95768.56;106622;1274;23206;-74
2023/05/27 02:56:27;;;;;;;9.40;6.80;;;;;;;10.09;87.40;95771.82;106609;1275;22652;-74
2023/05/27 02:58:55;;;;;;;11.30;6.50;;;;;;;10.03;87.41;95764.17;106652;1275;25392;-74
2023/05/27 03:01:23;;;;;;;14.20;6.60;;;;;;;10.07;87.79;95762.00;106573;1275;24367;-74
2023/05/27 03:03:52;;;;;;;8.10;5.50;;;;;;;10.14;87.76;95764.36;106582;1275;24378;-74
2023/05/27 03:06:20;;;;;;;9.10;6.60;;;;;;;10.13;88.09;95771.25;106476;1275;25312;-74
2023/05/27 03:08:48;;;;;;;7.30;6.20;;;;;;;10.08;88.41;95767.79;106574;1275;22533;-74
2023/05/27 03:11:16;;;;;;;9.10;6.00;;;;;;;10.06;89.24;95769.56;106606;1275;26640;-74
2023/05/27 03:13:44;;;;;;;7.20;5.90;;;;;;;10.06;89.78;95768.17;106563;1275;22614;-74
2023/05/27 03:16:12;;;;;;;10.40;6.90;;;;;;;10.06;89.99;95765.71;106581;1275;22742;-74
2023/05/27 03:18:41;;;;;;;12.10;7.00;;;;;;;10.08;89.92;95768.48;106589;1275;22524;-74
2023/05/27 03:21:09;;;;;;;10.50;7.70;;;;;;;10.12;90.42;95773.00;106582;1275;25385;-74
2023/05/27 03:23:38;;;;;;;11.20;7.20;;;;;;;10.16;91.01;95773.11;106557;1275;24227;-74
2023/05/27 03:26:07;;;;;;;11.60;7.20;;;;;;;10.21;90.54;95772.55;106560;1275;22531;-74
2023/05/27 03:28:35;;;;;;;11.30;7.70;;;;;;;10.25;90.08;95778.46;106578;1275;23881;-75
2023/05/27 03:31:04;;;;;;;10.10;7.60;;;;;;;10.27;89.80;95775.09;106545;1275;24209;-74
2023/05/27 03:33:45;;;;;;;9.20;7.70;;;;;;;10.27;89.37;95778.42;106603;1275;24457;-74
2023/05/27 03:36:13;;;;;;;10.90;7.80;;;;;;;10.31;89.78;95779.80;106497;1275;25927;-74
2023/05/27 03:38:42;;;;;;;10.90;7.40;;;;;;;10.37;89.83;95784.98;106612;1275;26522;-74
2023/05/27 03:41:10;;;;;;;7.90;7.00;;;;;;;10.43;89.94;95778.74;106554;1275;22797;-74
2023/05/27 03:43:39;;;;;;;9.00;6.90;;;;;;;10.51;90.20;95781.27;106581;1275;24270;-74
2023/05/27 03:46:08;;;;;;;8.50;7.00;;;;;;;10.57;89.88;95782.74;106590;1275;22533;-74
2023/05/27 03:48:36;;;;;;;7.50;6.40;;;;;;;10.64;89.98;95784.77;106638;1275;24114;-75
2023/05/27 03:51:05;;;;;;;7.00;6.30;;;;;;;10.68;89.46;95781.89;106584;1275;24246;-74
2023/05/27 03:53:33;;;;;;;8.30;6.90;;;;;;;10.66;89.08;95782.27;106552;1275;25088;-74
2023/05/27 03:56:01;;;;;;;10.50;6.60;;;;;;;10.67;89.38;95781.89;106644;1275;24428;-74
2023/05/27 03:58:30;;;;;;;7.70;6.90;;;;;;;10.73;89.83;95782.50;106620;1275;22528;-74
2023/05/27 04:00:58;;;;;;;7.90;7.10;;;;;;;10.82;89.59;95783.42;106621;1275;22524;-75
2023/05/27 04:03:27;;;;;;;7.30;6.60;;;;;;;10.88;89.66;95780.84;106606;1275;25214;-74
2023/05/27 04:05:59;;;;;;;10.40;6.80;;;;;;;11.03;89.99;95782.19;106648;1275;24451;-74
2023/05/27 04:08:27;;;;;;;8.50;7.00;;;;;;;11.16;89.91;95784.77;106620;1275;25223;-74
2023/05/27 04:10:55;;;;;;;9.10;6.70;;;;;;;11.31;89.80;95787.14;106549;1275;22643;-74
2023/05/27 04:13:25;;;;;;;8.40;7.30;;;;;;;11.41;89.17;95785.36;106640;1275;25389;-74
2023/05/27 04:15:53;;;;;;;13.80;9.30;;;;;;;11.45;88.54;95783.87;106549;1275;25378;-74
2023/05/27 04:18:21;;;;;;;13.10;9.20;;;;;;;11.52;87.97;95784.83;106568;1275;22520;-74
2023/05/27 04:20:52;;;;;;;10.80;8.00;;;;;;;11.51;87.59;95789.23;106646;1275;24437;-74
2023/05/27 04:23:20;;;;;;;12.60;8.00;;;;;;;11.52;87.98;95793.09;106571;1275;22528;-74
2023/05/27 04:25:51;;;;;;;7.70;6.90;;;;;;;11.51;88.14;95792.92;106621;1275;25233;-74
2023/05/27 04:28:21;;;;;;;9.70;7.60;;;;;;;11.53;87.93;95790.61;106581;1275;24043;-74
2023/05/27 04:30:51;;;;;;;10.20;7.60;;;;;;;11.64;88.77;95794.08;106598;1275;25655;-74
2023/05/27 04:33:30;;;;;;;8.90;7.70;;;;;;;11.85;89.22;95796.15;106548;1275;25556;-74
2023/05/27 04:35:59;;;;;;;12.80;7.80;;;;;;;11.99;88.64;95795.36;106653;1275;25281;-75
2023/05/27 04:38:31;;;;;;;10.60;8.00;;;;;;;12.12;88.67;95800.38;106624;1275;24254;-75
2023/05/27 04:41:03;;;;;;;9.00;7.20;;;;;;;12.29;88.57;95798.41;106577;1275;22521;-75
2023/05/27 04:43:56;;;;;;;8.90;7.20;;;;;;;12.46;88.45;95797.68;106567;1275;25358;-75
2023/05/27 04:46:28;;;;;;;7.70;6.10;;;;;;;12.56;87.79;95793.05;106597;1275;26508;-74
2023/05/27 04:48:56;;;;;;;10.10;7.30;;;;;;;12.61;87.46;95793.63;106684;1275;22528;-75
2023/05/27 04:51:25;;;;;;;11.60;7.30;;;;;;;12.68;87.80;95794.70;106587;1275;26505;-75
2023/05/27 04:53:54;;;;;;;9.30;7.20;;;;;;;12.77;87.54;95802.26;106676;1260;24386;-74
2023/05/27 04:56:23;;;;;;;8.60;7.20;;;;;;;12.80;87.08;95803.27;106648;1275;24205;-74
2023/05/27 04:58:51;;;;;;;8.50;6.60;;;;;;;12.79;86.67;95805.21;106580;1275;22514;-74
2023/05/27 05:01:25;;;;;;;10.60;7.20;;;;;;;12.84;86.88;95808.63;106620;1263;22756;-73
2023/05/27 05:04:11;;;;;;;11.00;7.90;;;;;;;12.90;86.80;95814.30;106566;1275;23904;-74
2023/05/27 05:06:50;;;;;;;9.50;8.60;;;;;;;12.94;86.28;95811.39;106603;1275;23020;-74
2023/05/27 05:09:18;;;;;;;11.40;8.90;;;;;;;12.91;86.30;95809.17;106557;1275;25265;-74
2023/05/27 05:11:47;;;;;;;10.90;8.90;;;;;;;12.93;86.75;95805.93;106582;1275;24324;-74
2023/05/27 05:14:15;;;;;;;18.80;9.70;;;;;;;12.95;86.78;95804.64;106578;1275;25369;-74
2023/05/27 05:16:43;;;;;;;10.90;9.40;;;;;;;13.01;87.16;95808.92;106594;1275;24269;-74
2023/05/27 05:19:11;;;;;;;13.50;9.80;;;;;;;13.06;87.14;95806.33;106598;1275;22511;-71
2023/05/27 05:21:39;;;;;;;11.50;10.20;;;;;;;13.10;87.19;95805.35;106626;1275;22524;-73
2023/05/27 05:24:10;;;;;;;14.50;11.30;;;;;;;13.13;87.06;95803.15;106636;1275;22557;-73
2023/05/27 05:26:38;;;;;;;16.60;12.00;;;;;;;13.14;86.83;95806.65;106590;1275;22656;-73
2023/05/27 05:29:07;;;;;;;15.90;11.50;;;;;;;13.13;86.98;95804.72;106532;1275;22573;-74
2023/05/27 05:31:36;;;;;;;17.50;12.50;;;;;;;13.09;87.16;95804.66;106660;1275;22646;-74
2023/05/27 05:34:05;;;;;;;11.40;9.50;;;;;;;13.11;87.17;95800.72;106612;1275;24236;-74
2023/05/27 05:36:34;;;;;;;13.50;9.30;;;;;;;13.19;87.21;95800.35;106663;1275;23950;-74
2023/05/27 05:39:06;;;;;;;10.80;8.30;;;;;;;13.29;87.28;95802.77;106570;1275;24268;-74
2023/05/27 05:41:36;;;;;;;11.50;8.00;;;;;;;13.38;87.23;95802.86;106667;1275;25271;-74
2023/05/27 05:44:04;;;;;;;14.90;8.00;;;;;;;13.48;87.15;95805.30;106646;1275;25560;-74
2023/05/27 05:46:32;;;;;;;17.10;8.10;;;;;;;13.62;87.50;95807.02;106546;1276;25364;-74
2023/05/27 05:49:01;;;;;;;12.80;7.40;;;;;;;13.75;87.27;95805.95;106566;1276;22534;-74
2023/05/27 05:51:36;;;;;;;10.20;7.80;;;;;;;13.87;86.71;95806.35;106582;1275;23900;-74
2023/05/27 05:54:05;;;;;;;11.90;8.00;;;;;;;14.09;87.44;95812.44;106573;1275;25271;-74
2023/05/27 05:56:34;;;;;;;10.20;8.00;;;;;;;14.29;86.61;95811.98;106550;1276;25392;-74
2023/05/27 05:59:03;;;;;;;10.60;7.50;;;;;;;14.48;86.40;95811.29;106593;1276;22599;-76
2023/05/27 06:01:32;;;;;;;12.00;7.50;;;;;;;14.63;85.73;95811.89;106549;1275;22526;-70
2023/05/27 06:04:04;;;;;;;9.70;8.20;;;;;;;14.74;84.30;95813.17;106515;1273;25462;-74
2023/05/27 06:06:40;;;;;;;9.10;7.20;;;;;;;14.97;84.76;95818.98;106615;1275;25448;-74
2023/05/27 06:09:23;;;;;;;9.40;7.30;;;;;;;15.11;83.25;95815.89;106585;1260;24379;-74
2023/05/27 06:11:52;;;;;;;9.10;7.10;;;;;;;15.26;83.10;95810.95;106651;1261;25405;-74
2023/05/27 06:14:22;;;;;;;10.70;7.50;;;;;;;15.48;83.39;95804.87;106696;1260;25290;-74
2023/05/27 06:16:51;;;;;;;9.80;7.80;;;;;;;15.64;81.94;95803.78;106597;1275;22529;-73
2023/05/27 06:19:19;;;;;;;10.00;7.80;;;;;;;15.75;81.98;95804.88;106595;1276;22987;-74
2023/05/27 06:21:48;;;;;;;13.40;8.20;;;;;;;15.91;81.50;95812.63;106546;1276;25649;-74
2023/05/27 06:24:41;;;;;;;10.00;8.60;;;;;;;16.05;81.27;95815.33;106548;1275;25217;-71
2023/05/27 06:27:15;;;;;;;11.10;8.40;;;;;;;16.12;80.62;95807.79;106580;1276;22630;-71
2023/05/27 06:29:44;;;;;;;9.80;8.10;;;;;;;16.28;81.31;95808.45;106551;1275;22522;-71
2023/05/27 06:32:13;;;;;;;9.50;8.40;;;;;;;16.46;81.66;95807.92;106673;1270;24334;-71
2023/05/27 06:34:42;;;;;;;10.60;8.30;;;;;;;16.64;81.70;95809.55;106693;1267;23262;-72
2023/05/27 06:37:10;;;;;;;8.30;7.40;;;;;;;16.73;81.37;95809.20;106588;1276;25376;-72
2023/05/27 06:39:39;;;;;;;12.60;8.20;;;;;;;16.80;80.99;95808.60;106561;1276;22541;-75
2023/05/27 06:42:07;;;;;;;11.90;8.30;;;;;;;16.87;80.91;95807.45;106600;1275;26650;-75
2023/05/27 06:44:51;;;;;;;9.10;7.60;;;;;;;17.00;81.12;95805.27;106575;1275;22647;-76
2023/05/27 06:47:22;;;;;;;35.70;25.70;;;;;;;17.19;80.67;95802.05;106624;1275;24386;-72
2023/05/27 06:49:50;;;;;;;10.20;7.70;;;;;;;17.33;79.38;95800.73;106596;1275;24234;-72
2023/05/27 06:52:19;;;;;;;10.30;7.30;;;;;;;17.42;75.37;95798.05;106554;1275;22560;-73
2023/05/27 06:55:18;;;;;;;8.60;7.20;;;;;;;17.52;74.65;95797.27;106505;1275;22813;-72
2023/05/27 06:58:14;;;;;;;9.90;7.50;;;;;;;17.65;75.78;95801.71;106526;1276;25424;-74
2023/05/27 07:00:53;;;;;;;8.20;6.60;;;;;;;17.80;75.73;95806.06;106534;1276;22829;-72
2023/05/27 07:03:42;;;;;;;8.20;6.20;;;;;;;17.89;73.89;95800.67;106558;1276;24201;-73
2023/05/27 07:06:11;;;;;;;8.80;7.20;;;;;;;17.98;74.39;95802.80;106530;1275;25223;-73
2023/05/27 07:08:45;;;;;;;11.40;7.30;;;;;;;18.14;74.90;95804.39;106676;1266;22637;-73
2023/05/27 07:11:21;;;;;;;14.10;9.20;;;;;;;18.23;71.20;95807.88;106619;1275;24266;-73
2023/05/27 07:13:50;;;;;;;12.80;10.00;;;;;;;18.30;71.74;95808.63;106678;1276;23104;-73
2023/05/27 07:16:21;;;;;;;11.30;9.00;;;;;;;18.36;71.41;95805.89;106530;1276;25532;-73
2023/05/27 07:18:49;;;;;;;10.30;8.60;;;;;;;18.37;70.96;95803.53;106622;1275;22569;-73
2023/05/27 07:21:18;;;;;;;11.30;8.90;;;;;;;18.41;69.71;95798.01;106626;1275;23908;-74
2023/05/27 07:23:46;;;;;;;8.80;7.50;;;;;;;18.53;71.36;95797.45;106574;1275;24216;-74
2023/05/27 07:26:26;;;;;;;11.60;7.90;;;;;;;18.69;71.72;95795.61;106619;1275;25337;-74
2023/05/27 07:28:57;;;;;;;13.80;7.20;;;;;;;18.88;72.09;95797.24;106601;1275;22540;-74
2023/05/27 07:31:32;;;;;;;9.20;7.10;;;;;;;18.99;68.93;95796.01;106594;1275;24266;-73
2023/05/27 07:34:05;;;;;;;7.20;6.50;;;;;;;19.01;69.26;95790.92;106547;1275;25654;-73
2023/05/27 07:36:33;;;;;;;7.50;6.70;;;;;;;19.00;66.33;95788.80;106665;1275;22566;-73
2023/05/27 07:39:02;;;;;;;7.90;6.60;;;;;;;19.02;67.30;95792.30;106570;1275;25539;-73
2023/05/27 07:41:30;;;;;;;7.30;6.40;;;;;;;19.16;68.53;95793.39;106536;1275;22516;-73
2023/05/27 07:43:58;;;;;;;8.50;7.30;;;;;;;19.28;67.57;95789.08;106570;1275;24353;-73
2023/05/27 07:46:27;;;;;;;17.00;11.00;;;;;;;19.46;68.36;95789.57;106647;1275;24196;-73
2023/05/27 07:48:55;;;;;;;19.70;13.50;;;;;;;19.61;64.93;95782.04;106627;1275;22523;-75
2023/05/27 07:51:24;;;;;;;10.20;7.90;;;;;;;19.75;65.16;95784.58;106626;1275;23904;-72
2023/05/27 07:53:52;;;;;;;7.20;6.10;;;;;;;19.83;63.88;95783.95;106647;1275;22524;-73
2023/05/27 07:56:20;;;;;;;9.30;7.40;;;;;;;19.87;63.50;95787.84;106487;1275;25389;-73
2023/05/27 07:58:49;;;;;;;9.60;6.70;;;;;;;20.05;64.30;95786.37;106543;1275;22530;-72
2023/05/27 08:01:19;;;;;;;7.30;6.60;;;;;;;20.26;62.93;95783.64;106570;1260;25223;-73
2023/05/27 08:03:49;;;;;;;7.10;6.40;;;;;;;20.35;60.51;95779.08;106570;1275;23894;-72
2023/05/27 08:06:41;;;;;;;7.60;6.80;;;;;;;20.29;59.73;95777.22;106408;1275;25403;-73
2023/05/27 08:09:29;;;;;;;9.50;6.50;;;;;;;20.34;61.86;95778.77;106595;1275;25381;-73
2023/05/27 08:12:17;;;;;;;9.50;6.30;;;;;;;20.54;63.18;95777.88;106638;1275;25390;-73
2023/05/27 08:14:59;;;;;;;8.10;6.50;;;;;;;20.73;62.78;95775.39;106567;1275;22524;-73
2023/05/27 08:17:40;;;;;;;7.30;6.60;;;;;;;20.80;62.31;95775.02;106565;1275;25196;-72
2023/05/27 08:20:29;;;;;;;7.10;6.40;;;;;;;20.86;60.91;95774.14;106606;1275;25271;-73
2023/05/27 08:23:09;;;;;;;9.70;6.80;;;;;;;20.80;60.03;95776.63;106654;1275;24374;-73
2023/05/27 08:25:55;;;;;;;7.10;6.30;;;;;;;20.83;60.52;95777.19;106596;1275;25364;-73
2023/05/27 08:28:41;;;;;;;6.50;5.60;;;;;;;20.92;60.42;95771.65;106586;1275;24061;-72
2023/05/27 08:31:25;;;;;;;8.80;6.20;;;;;;;20.95;59.12;95774.16;106632;1275;22796;-72
2023/05/27 08:33:56;;;;;;;7.40;6.10;;;;;;;20.81;57.32;95779.95;106594;1275;22638;-72
2023/05/27 08:36:24;;;;;;;6.90;6.30;;;;;;;20.83;58.60;95784.33;106457;1275;24279;-72
2023/05/27 08:38:52;;;;;;;9.00;6.70;;;;;;;20.89;58.29;95773.80;106602;1266;22636;-73
2023/05/27 08:41:27;;;;;;;6.80;6.10;;;;;;;20.95;59.07;95772.20;106727;1275;22527;-73
2023/05/27 08:43:57;;;;;;;7.10;6.40;;;;;;;21.01;56.96;95770.07;106573;1275;22617;-72
2023/05/27 08:46:48;;;;;;;8.40;6.20;;;;;;;21.00;56.63;95771.21;106696;1275;22534;-73
2023/05/27 08:49:17;;;;;;;9.40;6.50;;;;;;;21.06;57.94;95768.90;106570;1275;23926;-73
2023/05/27 08:51:46;;;;;;;7.50;5.60;;;;;;;21.23;58.22;95769.35;106636;1275;22692;-73
2023/05/27 08:54:15;;;;;;;7.20;6.30;;;;;;;21.41;57.63;95762.94;106632;1275;22599;-72
2023/05/27 08:56:45;;;;;;;8.30;5.90;;;;;;;21.61;57.80;95761.76;106666;1275;22937;-72
2023/05/27 08:59:15;;;;;;;9.20;6.50;;;;;;;21.88;56.21;95761.05;106598;1275;25616;-72
2023/05/27 09:01:44;;;;;;;11.50;6.50;;;;;;;22.05;56.54;95758.41;106617;1275;22672;-72
2023/05/27 09:04:13;;;;;;;9.10;6.10;;;;;;;22.22;56.70;95765.28;106510;1275;24211;-73
2023/05/27 09:06:42;;;;;;;6.90;6.20;;;;;;;22.33;56.66;95762.99;106655;1275;22527;-75
2023/05/27 09:09:11;;;;;;;7.00;6.30;;;;;;;22.53;56.91;95761.90;106591;1275;24468;-74
2023/05/27 09:11:42;;;;;;;7.40;6.40;;;;;;;22.84;56.60;95760.83;106548;1275;24379;-72
2023/05/27 09:14:23;;;;;;;6.90;6.30;;;;;;;23.13;55.47;95757.68;106636;1275;24258;-74
2023/05/27 09:16:51;;;;;;;5.90;5.40;;;;;;;23.36;53.61;95757.98;106632;1275;22602;-73
2023/05/27 09:19:20;;;;;;;7.50;6.00;;;;;;;23.53;52.97;95755.04;106613;1275;25447;-73
2023/05/27 09:21:52;;;;;;;6.10;5.50;;;;;;;23.62;52.56;95751.58;106713;1275;24050;-72
2023/05/27 09:24:24;;;;;;;7.50;6.30;;;;;;;23.62;51.99;95751.23;106601;1275;22505;-72
2023/05/27 09:26:54;;;;;;;7.50;5.80;;;;;;;23.55;49.73;95748.11;106585;1275;22520;-73
2023/05/27 09:29:25;;;;;;;8.80;5.90;;;;;;;23.59;50.88;95746.96;106590;1275;22779;-72
2023/05/27 09:31:58;;;;;;;6.50;5.90;;;;;;;23.78;51.26;95743.16;106584;1275;22683;-72
2023/05/27 09:34:29;;;;;;;;;;;;;;;23.92;51.32;95741.83;106720;1275;25447;-72
2023/05/27 09:36:58;;;;;;;6.60;5.60;;;;;;;23.98;50.73;95741.40;106653;1275;24218;-72
2023/05/27 09:39:27;;;;;;;7.20;5.70;;;;;;;23.96;50.53;95739.71;106655;1275;25322;-72
2023/05/27 09:41:58;;;;;;;8.30;5.80;;;;;;;24.05;50.91;95744.19;106559;1275;25622;-73
2023/05/27 09:44:42;;;;;;;6.20;5.60;;;;;;;23.92;48.87;95745.98;106628;1275;22781;-72
2023/05/27 09:47:11;;;;;;;6.60;5.40;;;;;;;23.82;50.51;95749.71;106573;1275;22727;-73
2023/05/27 09:49:41;;;;;;;6.80;5.70;;;;;;;23.81;50.34;95742.96;106574;1275;26627;-73
2023/05/27 09:52:12;;;;;;;11.90;5.90;;;;;;;23.70;49.83;95740.64;106676;1275;24413;-73
2023/05/27 09:54:41;;;;;;;6.60;5.90;;;;;;;23.51;48.39;95737.05;106588;1275;25246;-73
2023/05/27 09:57:10;;;;;;;6.40;5.80;;;;;;;23.33;50.15;95733.79;106643;1275;22640;-73
2023/05/27 09:59:40;;;;;;;68.10;44.40;;;;;;;23.17;49.86;95732.52;106577;1275;25713;-72
2023/05/27 10:02:09;;;;;;;9.10;7.40;;;;;;;23.09;50.52;95729.29;106649;1275;24331;-72
2023/05/27 10:04:37;;;;;;;8.10;6.50;;;;;;;23.21;51.59;95722.54;106623;1275;25211;-73
2023/05/27 10:07:06;;;;;;;7.50;6.50;;;;;;;23.37;50.97;95717.00;106589;1275;22527;-73
2023/05/27 10:09:36;;;;;;;7.00;6.00;;;;;;;23.39;51.22;95720.98;106668;1275;23928;-72
2023/05/27 10:12:05;;;;;;;7.20;6.00;;;;;;;23.50;51.02;95722.59;106599;1275;22538;-73
2023/05/27 10:14:34;;;;;;;8.60;6.00;;;;;;;23.72;51.10;95719.85;106683;1275;24193;-73
2023/05/27 10:17:02;;;;;;;7.50;6.60;;;;;;;23.94;51.52;95717.07;106577;1272;22531;-72
2023/05/27 10:19:30;;;;;;;7.60;6.00;;;;;;;24.11;50.46;95715.69;106627;1275;22522;-73
2023/05/27 10:22:07;;;;;;;6.90;6.00;;;;;;;24.26;49.58;95712.52;106625;1275;24352;-73
2023/05/27 10:24:36;;;;;;;7.30;5.80;;;;;;;24.38;47.91;95709.11;106648;1275;22531;-73
2023/05/27 10:27:05;;;;;;;7.30;6.10;;;;;;;24.53;48.52;95703.36;106665;1275;25687;-73
2023/05/27 10:29:38;;;;;;;9.10;5.90;;;;;;;24.62;47.57;95700.84;106671;1275;22531;-73
2023/05/27 10:32:07;;;;;;;8.60;6.00;;;;;;;24.73;47.62;95700.00;106569;1275;22525;-73
2023/05/27 10:34:44;;;;;;;6.60;5.70;;;;;;;24.86;47.21;95697.59;106661;1275;24251;-73
2023/05/27 10:37:21;;;;;;;9.90;6.00;;;;;;;24.96;46.47;95699.70;106585;1275;22529;-73
2023/05/27 10:39:56;;;;;;;6.10;5.50;;;;;;;25.08;47.50;95700.28;106684;1275;22528;-73
2023/05/27 10:42:24;;;;;;;6.70;5.60;;;;;;;25.23;44.94;95698.78;106638;1275;22795;-72
2023/05/27 10:45:09;;;;;;;10.70;5.60;;;;;;;25.26;44.42;95697.84;106625;1275;22571;-73
2023/05/27 10:47:37;;;;;;;7.20;6.50;;;;;;;25.35;42.90;95691.84;106629;1275;25326;-73
2023/05/27 10:50:13;;;;;;;6.20;5.60;;;;;;;25.45;43.89;95693.86;106575;1275;24338;-73
2023/05/27 10:52:42;;;;;;;6.80;5.60;;;;;;;25.57;44.04;95692.08;106655;1275;22668;-73
2023/05/27 10:55:10;;;;;;;8.30;5.90;;;;;;;25.80;43.89;95688.75;106586;1275;22521;-73
2023/05/27 10:57:39;;;;;;;7.20;5.60;;;;;;;26.05;44.75;95685.73;106606;1275;22643;-73
2023/05/27 11:00:09;;;;;;;7.20;6.00;;;;;;;26.30;43.71;95689.14;106647;1275;22528;-73
2023/05/27 11:02:38;;;;;;;6.00;5.40;;;;;;;26.45;43.25;95686.50;106649;1275;25423;-73
2023/05/27 11:05:14;;;;;;;7.30;5.60;;;;;;;26.61;42.09;95680.39;106578;1275;24258;-73
2023/05/27 11:07:42;;;;;;;7.60;5.30;;;;;;;26.77;41.54;95679.04;106637;1275;22534;-74
2023/05/27 11:10:13;;;;;;;7.90;5.60;;;;;;;26.90;41.87;95677.66;106637;1275;22525;-74
2023/05/27 11:12:45;;;;;;;6.30;5.50;;;;;;;26.75;40.53;95678.49;106648;1275;22640;-74
2023/05/27 11:15:13;;;;;;;8.90;5.70;;;;;;;26.70;40.90;95677.05;106656;1275;24205;-74
2023/05/27 11:17:41;;;;;;;22.20;13.00;;;;;;;26.88;41.24;95672.05;106531;1275;22679;-74
2023/05/27 11:20:10;;;;;;;39.30;18.00;;;;;;;27.03;40.27;95668.45;106665;1275;25367;-74
2023/05/27 11:22:38;;;;;;;14.10;9.00;;;;;;;27.09;38.94;95669.71;106672;1275;22515;-74
2023/05/27 11:25:09;;;;;;;33.40;15.70;;;;;;;26.93;39.74;95670.89;106632;1264;22536;-74
2023/05/27 11:27:39;;;;;;;10.30;7.00;;;;;;;26.85;40.69;95668.29;106631;1275;22586;-74
2023/05/27 11:30:09;;;;;;;19.00;10.10;;;;;;;26.59;40.28;95669.88;106638;1275;25396;-74
2023/05/27 11:32:40;;;;;;;30.40;14.90;;;;;;;26.32;40.61;95664.06;106632;1275;25528;-74
2023/05/27 11:35:18;;;;;;;10.10;6.80;;;;;;;25.99;40.79;95670.66;106602;1275;22510;-74
2023/05/27 11:37:50;;;;;;;78.50;37.30;;;;;;;25.65;42.15;95667.70;106655;1275;22525;-74
2023/05/27 11:40:18;;;;;;;83.70;41.60;;;;;;;25.27;44.96;95665.59;106564;1275;22688;-73